sensor_id;sensor_type;location;lat;lon;timestamp;temperature;humidity
71291;DHT22;59073;51.994;4.448;2022-09-03T00:00:21;18.91;53.46
71291;DHT22;59073;51.994;4.448;2022-09-03T00:03:19;18.95;52.97
71291;DHT22;59073;51.994;4.448;2022-09-03T00:08:37;18.84;53.30
71291;DHT22;59073;51.994;4.448;2022-09-03T00:11:28;18.84;53.45
71291;DHT22;59073;51.994;4.448;2022-09-03T00:14:20;18.64;54.85
71291;DHT22;59073;51.994;4.448;2022-09-03T00:19:21;18.75;53.63
71291;DHT22;59073;51.994;4.448;2022-09-03T00:21:58;18.85;54.22
71291;DHT22;59073;51.994;4.448;2022-09-03T00:24:28;18.72;53.39
71291;DHT22;59073;51.994;4.448;2022-09-03T00:27:00;18.78;53.05
71291;DHT22;59073;51.994;4.448;2022-09-03T00:29:45;18.65;53.41
71291;DHT22;59073;51.994;4.448;2022-09-03T00:32:23;18.58;53.35
71291;DHT22;59073;51.994;4.448;2022-09-03T00:34:57;18.64;53.75
71291;DHT22;59073;51.994;4.448;2022-09-03T00:37:26;18.67;53.94
71291;DHT22;59073;51.994;4.448;2022-09-03T00:39:54;18.71;53.64
71291;DHT22;59073;51.994;4.448;2022-09-03T00:42:39;18.68;53.89
71291;DHT22;59073;51.994;4.448;2022-09-03T00:45:24;18.75;53.73
71291;DHT22;59073;51.994;4.448;2022-09-03T00:48:27;18.67;53.51
71291;DHT22;59073;51.994;4.448;2022-09-03T00:51:16;18.74;54.23
71291;DHT22;59073;51.994;4.448;2022-09-03T00:59:26;18.87;53.58
71291;DHT22;59073;51.994;4.448;2022-09-03T01:02:15;18.74;53.39
71291;DHT22;59073;51.994;4.448;2022-09-03T01:07:48;18.68;53.07
71291;DHT22;59073;51.994;4.448;2022-09-03T01:15:48;18.68;53.27
71291;DHT22;59073;51.994;4.448;2022-09-03T01:18:20;18.64;53.94
71291;DHT22;59073;51.994;4.448;2022-09-03T01:26:22;18.61;54.26
71291;DHT22;59073;51.994;4.448;2022-09-03T01:29:19;18.47;54.06
71291;DHT22;59073;51.994;4.448;2022-09-03T01:32:24;18.43;53.49
71291;DHT22;59073;51.994;4.448;2022-09-03T01:35:24;18.44;54.45
71291;DHT22;59073;51.994;4.448;2022-09-03T01:40:41;18.41;54.46
71291;DHT22;59073;51.994;4.448;2022-09-03T01:46:25;18.40;53.46
71291;DHT22;59073;51.994;4.448;2022-09-03T01:49:03;18.41;53.69
71291;DHT22;59073;51.994;4.448;2022-09-03T01:51:31;18.33;54.43
71291;DHT22;59073;51.994;4.448;2022-09-03T01:57:41;18.34;55.37
71291;DHT22;59073;51.994;4.448;2022-09-03T02:00:16;18.26;54.29
71291;DHT22;59073;51.994;4.448;2022-09-03T02:02:47;18.23;54.26
71291;DHT22;59073;51.994;4.448;2022-09-03T02:07:47;18.06;55.53
71291;DHT22;59073;51.994;4.448;2022-09-03T02:10:17;18.12;55.14
71291;DHT22;59073;51.994;4.448;2022-09-03T02:12:51;18.13;54.88
71291;DHT22;59073;51.994;4.448;2022-09-03T02:15:21;18.12;55.43
71291;DHT22;59073;51.994;4.448;2022-09-03T02:17:49;18.06;55.26
71291;DHT22;59073;51.994;4.448;2022-09-03T02:20:21;18.06;54.95
71291;DHT22;59073;51.994;4.448;2022-09-03T02:22:48;18.00;55.73
71291;DHT22;59073;51.994;4.448;2022-09-03T02:25:16;17.97;54.98
71291;DHT22;59073;51.994;4.448;2022-09-03T02:27:45;17.94;54.97
71291;DHT22;59073;51.994;4.448;2022-09-03T02:30:12;17.90;54.70
71291;DHT22;59073;51.994;4.448;2022-09-03T02:32:38;17.90;54.95
71291;DHT22;59073;51.994;4.448;2022-09-03T02:35:04;17.86;54.59
71291;DHT22;59073;51.994;4.448;2022-09-03T02:37:29;17.90;55.51
71291;DHT22;59073;51.994;4.448;2022-09-03T02:39:54;17.78;55.34
71291;DHT22;59073;51.994;4.448;2022-09-03T02:42:20;17.73;54.64
71291;DHT22;59073;51.994;4.448;2022-09-03T02:45:12;17.66;55.56
71291;DHT22;59073;51.994;4.448;2022-09-03T02:47:43;17.63;56.05
71291;DHT22;59073;51.994;4.448;2022-09-03T02:50:10;17.61;56.25
71291;DHT22;59073;51.994;4.448;2022-09-03T02:52:35;17.55;55.99
71291;DHT22;59073;51.994;4.448;2022-09-03T02:55:00;17.51;55.67
71291;DHT22;59073;51.994;4.448;2022-09-03T02:57:26;17.49;56.50
71291;DHT22;59073;51.994;4.448;2022-09-03T02:59:53;17.52;56.19
71291;DHT22;59073;51.994;4.448;2022-09-03T03:02:18;17.46;56.00
71291;DHT22;59073;51.994;4.448;2022-09-03T03:04:44;17.49;55.76
71291;DHT22;59073;51.994;4.448;2022-09-03T03:07:09;17.42;56.55
71291;DHT22;59073;51.994;4.448;2022-09-03T03:09:35;17.34;56.52
71291;DHT22;59073;51.994;4.448;2022-09-03T03:12:00;17.41;56.62
71291;DHT22;59073;51.994;4.448;2022-09-03T03:14:25;17.34;56.52
71291;DHT22;59073;51.994;4.448;2022-09-03T03:16:51;17.30;56.93
71291;DHT22;59073;51.994;4.448;2022-09-03T03:19:17;17.27;56.77
71291;DHT22;59073;51.994;4.448;2022-09-03T03:21:42;17.27;57.27
71291;DHT22;59073;51.994;4.448;2022-09-03T03:24:08;17.18;57.20
71291;DHT22;59073;51.994;4.448;2022-09-03T03:26:33;17.22;57.09
71291;DHT22;59073;51.994;4.448;2022-09-03T03:29:00;17.11;57.40
71291;DHT22;59073;51.994;4.448;2022-09-03T03:31:28;17.07;57.79
71291;DHT22;59073;51.994;4.448;2022-09-03T03:33:57;17.01;57.89
71291;DHT22;59073;51.994;4.448;2022-09-03T03:36:25;16.99;57.56
71291;DHT22;59073;51.994;4.448;2022-09-03T03:38:55;17.08;57.76
71291;DHT22;59073;51.994;4.448;2022-09-03T03:41:33;16.99;58.03
71291;DHT22;59073;51.994;4.448;2022-09-03T03:44:04;17.04;57.14
71291;DHT22;59073;51.994;4.448;2022-09-03T03:46:35;17.04;57.78
71291;DHT22;59073;51.994;4.448;2022-09-03T03:49:01;17.03;57.86
71291;DHT22;59073;51.994;4.448;2022-09-03T03:51:27;16.95;57.89
71291;DHT22;59073;51.994;4.448;2022-09-03T03:53:56;17.06;57.64
71291;DHT22;59073;51.994;4.448;2022-09-03T03:56:24;16.95;58.05
71291;DHT22;59073;51.994;4.448;2022-09-03T03:58:51;16.88;57.68
71291;DHT22;59073;51.994;4.448;2022-09-03T04:01:22;16.90;58.02
71291;DHT22;59073;51.994;4.448;2022-09-03T04:03:49;16.93;58.06
71291;DHT22;59073;51.994;4.448;2022-09-03T04:06:19;16.87;57.80
71291;DHT22;59073;51.994;4.448;2022-09-03T04:08:46;16.84;58.53
71291;DHT22;59073;51.994;4.448;2022-09-03T04:11:14;16.83;58.34
71291;DHT22;59073;51.994;4.448;2022-09-03T04:13:43;16.83;58.21
71291;DHT22;59073;51.994;4.448;2022-09-03T04:16:17;16.76;58.54
71291;DHT22;59073;51.994;4.448;2022-09-03T04:18:44;16.80;58.26
71291;DHT22;59073;51.994;4.448;2022-09-03T04:21:15;16.77;58.61
71291;DHT22;59073;51.994;4.448;2022-09-03T04:23:43;16.73;58.75
71291;DHT22;59073;51.994;4.448;2022-09-03T04:26:13;16.73;59.01
71291;DHT22;59073;51.994;4.448;2022-09-03T04:28:39;16.67;58.69
71291;DHT22;59073;51.994;4.448;2022-09-03T04:31:08;16.63;59.12
71291;DHT22;59073;51.994;4.448;2022-09-03T04:33:35;16.63;59.62
71291;DHT22;59073;51.994;4.448;2022-09-03T04:36:17;16.53;59.64
71291;DHT22;59073;51.994;4.448;2022-09-03T04:39:11;16.48;59.49
71291;DHT22;59073;51.994;4.448;2022-09-03T04:41:58;16.49;59.67
71291;DHT22;59073;51.994;4.448;2022-09-03T04:48:26;16.38;59.75
71291;DHT22;59073;51.994;4.448;2022-09-03T05:08:17;16.34;59.76
71291;DHT22;59073;51.994;4.448;2022-09-03T05:47:47;17.96;55.19
71291;DHT22;59073;51.994;4.448;2022-09-03T05:50:13;18.03;55.06
71291;DHT22;59073;51.994;4.448;2022-09-03T05:53:08;18.27;54.33
71291;DHT22;59073;51.994;4.448;2022-09-03T05:55:34;18.67;53.74
71291;DHT22;59073;51.994;4.448;2022-09-03T05:58:00;18.62;53.80
71291;DHT22;59073;51.994;4.448;2022-09-03T06:00:27;18.72;53.72
71291;DHT22;59073;51.994;4.448;2022-09-03T06:02:53;18.75;53.97
71291;DHT22;59073;51.994;4.448;2022-09-03T06:05:19;18.78;53.13
71291;DHT22;59073;51.994;4.448;2022-09-03T06:07:45;18.99;52.47
71291;DHT22;59073;51.994;4.448;2022-09-03T06:10:14;19.08;52.23
71291;DHT22;59073;51.994;4.448;2022-09-03T06:12:42;19.49;51.00
71291;DHT22;59073;51.994;4.448;2022-09-03T06:15:13;19.59;51.36
71291;DHT22;59073;51.994;4.448;2022-09-03T06:17:39;19.92;50.67
71291;DHT22;59073;51.994;4.448;2022-09-03T06:20:05;19.88;50.83
71291;DHT22;59073;51.994;4.448;2022-09-03T06:22:30;19.81;51.83
71291;DHT22;59073;51.994;4.448;2022-09-03T06:24:56;20.31;50.82
71291;DHT22;59073;51.994;4.448;2022-09-03T06:27:21;20.01;49.83
71291;DHT22;59073;51.994;4.448;2022-09-03T06:29:47;20.55;49.48
71291;DHT22;59073;51.994;4.448;2022-09-03T06:32:12;20.57;48.40
71291;DHT22;59073;51.994;4.448;2022-09-03T06:34:40;20.73;49.10
71291;DHT22;59073;51.994;4.448;2022-09-03T06:37:05;20.82;48.68
71291;DHT22;59073;51.994;4.448;2022-09-03T06:39:31;20.25;49.30
71291;DHT22;59073;51.994;4.448;2022-09-03T06:41:56;20.26;48.88
71291;DHT22;59073;51.994;4.448;2022-09-03T06:44:22;20.18;48.58
71291;DHT22;59073;51.994;4.448;2022-09-03T06:46:49;20.04;49.56
71291;DHT22;59073;51.994;4.448;2022-09-03T06:49:20;19.95;49.20
71291;DHT22;59073;51.994;4.448;2022-09-03T06:51:45;19.92;49.25
71291;DHT22;59073;51.994;4.448;2022-09-03T06:54:12;20.26;49.37
71291;DHT22;59073;51.994;4.448;2022-09-03T06:56:39;20.43;48.29
71291;DHT22;59073;51.994;4.448;2022-09-03T06:59:10;20.79;48.17
71291;DHT22;59073;51.994;4.448;2022-09-03T07:01:36;21.00;47.19
71291;DHT22;59073;51.994;4.448;2022-09-03T07:04:07;21.03;47.82
71291;DHT22;59073;51.994;4.448;2022-09-03T07:06:36;21.04;48.32
71291;DHT22;59073;51.994;4.448;2022-09-03T07:09:08;21.21;48.35
71291;DHT22;59073;51.994;4.448;2022-09-03T07:11:35;20.76;47.89
71291;DHT22;59073;51.994;4.448;2022-09-03T07:14:03;20.68;48.10
71291;DHT22;59073;51.994;4.448;2022-09-03T07:16:35;20.87;48.27
71291;DHT22;59073;51.994;4.448;2022-09-03T07:19:01;20.77;48.50
71291;DHT22;59073;51.994;4.448;2022-09-03T07:21:55;20.82;49.22
71291;DHT22;59073;51.994;4.448;2022-09-03T07:24:32;20.38;50.06
71291;DHT22;59073;51.994;4.448;2022-09-03T07:27:02;20.46;49.99
71291;DHT22;59073;51.994;4.448;2022-09-03T07:29:33;20.68;49.67
71291;DHT22;59073;51.994;4.448;2022-09-03T07:32:09;20.51;50.79
71291;DHT22;59073;51.994;4.448;2022-09-03T07:35:07;20.56;50.26
71291;DHT22;59073;51.994;4.448;2022-09-03T07:44:40;21.15;48.75
71291;DHT22;59073;51.994;4.448;2022-09-03T07:47:05;21.40;48.39
71291;DHT22;59073;51.994;4.448;2022-09-03T07:49:43;21.61;48.24
71291;DHT22;59073;51.994;4.448;2022-09-03T07:52:22;21.50;47.86
71291;DHT22;59073;51.994;4.448;2022-09-03T07:55:59;21.59;47.28
71291;DHT22;59073;51.994;4.448;2022-09-03T07:59:01;21.91;48.80
71291;DHT22;59073;51.994;4.448;2022-09-03T08:02:07;21.62;47.82
71291;DHT22;59073;51.994;4.448;2022-09-03T08:08:24;21.37;48.68
71291;DHT22;59073;51.994;4.448;2022-09-03T08:11:16;21.38;48.18
71291;DHT22;59073;51.994;4.448;2022-09-03T08:37:15;22.13;47.44
71291;DHT22;59073;51.994;4.448;2022-09-03T08:43:32;22.54;47.34
71291;DHT22;59073;51.994;4.448;2022-09-03T09:27:06;23.87;43.07
71291;DHT22;59073;51.994;4.448;2022-09-03T10:04:29;24.92;43.15
71291;DHT22;59073;51.994;4.448;2022-09-03T10:07:52;25.59;43.26
71291;DHT22;59073;51.994;4.448;2022-09-03T10:13:44;25.74;39.85
71291;DHT22;59073;51.994;4.448;2022-09-03T10:16:36;25.80;42.41
71291;DHT22;59073;51.994;4.448;2022-09-03T10:19:12;26.15;43.28
71291;DHT22;59073;51.994;4.448;2022-09-03T10:21:52;25.59;40.30
71291;DHT22;59073;51.994;4.448;2022-09-03T10:24:46;25.54;43.75
71291;DHT22;59073;51.994;4.448;2022-09-03T10:27:17;25.67;41.45
71291;DHT22;59073;51.994;4.448;2022-09-03T10:29:43;25.71;42.66
71291;DHT22;59073;51.994;4.448;2022-09-03T10:32:33;25.46;42.43
71291;DHT22;59073;51.994;4.448;2022-09-03T10:35:33;25.33;42.19
71291;DHT22;59073;51.994;4.448;2022-09-03T10:38:15;25.88;44.14
71291;DHT22;59073;51.994;4.448;2022-09-03T10:43:39;25.51;42.31
71291;DHT22;59073;51.994;4.448;2022-09-03T10:46:15;25.20;44.35
71291;DHT22;59073;51.994;4.448;2022-09-03T10:49:08;26.08;41.68
71291;DHT22;59073;51.994;4.448;2022-09-03T10:51:42;25.92;42.72
71291;DHT22;59073;51.994;4.448;2022-09-03T10:54:35;26.35;41.87
71291;DHT22;59073;51.994;4.448;2022-09-03T10:57:41;25.66;41.13
71291;DHT22;59073;51.994;4.448;2022-09-03T11:00:08;26.18;40.07
71291;DHT22;59073;51.994;4.448;2022-09-03T11:05:29;25.60;39.52
71291;DHT22;59073;51.994;4.448;2022-09-03T11:08:22;26.06;39.88
71291;DHT22;59073;51.994;4.448;2022-09-03T11:11:00;26.00;40.51
71291;DHT22;59073;51.994;4.448;2022-09-03T11:13:36;26.15;39.67
71291;DHT22;59073;51.994;4.448;2022-09-03T11:16:14;26.04;39.97
71291;DHT22;59073;51.994;4.448;2022-09-03T11:19:04;26.26;39.45
71291;DHT22;59073;51.994;4.448;2022-09-03T11:21:39;26.39;41.50
71291;DHT22;59073;51.994;4.448;2022-09-03T11:24:43;26.17;40.06
71291;DHT22;59073;51.994;4.448;2022-09-03T15:59:05;26.17;37.74
71291;DHT22;59073;51.994;4.448;2022-09-03T16:02:05;26.17;38.02
71291;DHT22;59073;51.994;4.448;2022-09-03T16:05:15;26.17;38.50
71291;DHT22;59073;51.994;4.448;2022-09-03T16:11:04;26.35;39.14
71291;DHT22;59073;51.994;4.448;2022-09-03T16:14:04;26.36;37.39
71291;DHT22;59073;51.994;4.448;2022-09-03T16:19:24;26.33;38.39
71291;DHT22;59073;51.994;4.448;2022-09-03T16:21:59;26.26;38.24
71291;DHT22;59073;51.994;4.448;2022-09-03T16:24:37;26.18;38.07
71291;DHT22;59073;51.994;4.448;2022-09-03T16:27:40;26.11;37.54
71291;DHT22;59073;51.994;4.448;2022-09-03T16:30:08;26.15;38.98
71291;DHT22;59073;51.994;4.448;2022-09-03T16:33:09;26.08;38.03
71291;DHT22;59073;51.994;4.448;2022-09-03T16:44:11;26.26;38.07
71291;DHT22;59073;51.994;4.448;2022-09-03T16:50:03;25.92;39.10
71291;DHT22;59073;51.994;4.448;2022-09-03T16:52:53;25.85;40.04
71291;DHT22;59073;51.994;4.448;2022-09-03T16:55:32;25.77;40.15
71291;DHT22;59073;51.994;4.448;2022-09-03T16:58:18;25.88;39.46
71291;DHT22;59073;51.994;4.448;2022-09-03T17:01:10;25.66;39.73
71291;DHT22;59073;51.994;4.448;2022-09-03T17:03:59;25.70;39.60
71291;DHT22;59073;51.994;4.448;2022-09-03T17:09:33;25.75;40.51
71291;DHT22;59073;51.994;4.448;2022-09-03T17:12:25;25.66;40.98
71291;DHT22;59073;51.994;4.448;2022-09-03T17:15:15;25.67;41.09
71291;DHT22;59073;51.994;4.448;2022-09-03T17:18:08;25.78;41.71
71291;DHT22;59073;51.994;4.448;2022-09-03T17:20:56;25.70;41.08
71291;DHT22;59073;51.994;4.448;2022-09-03T17:23:47;25.61;41.87
71291;DHT22;59073;51.994;4.448;2022-09-03T17:26:32;25.57;40.63
71291;DHT22;59073;51.994;4.448;2022-09-03T17:43:30;25.49;42.39
71291;DHT22;59073;51.994;4.448;2022-09-03T17:46:27;25.47;42.29
71291;DHT22;59073;51.994;4.448;2022-09-03T17:48:59;25.34;43.35
71291;DHT22;59073;51.994;4.448;2022-09-03T17:51:49;25.23;43.20
71291;DHT22;59073;51.994;4.448;2022-09-03T18:02:35;24.91;43.69
71291;DHT22;59073;51.994;4.448;2022-09-03T18:08:04;24.89;44.40
71291;DHT22;59073;51.994;4.448;2022-09-03T18:10:43;24.88;44.53
71291;DHT22;59073;51.994;4.448;2022-09-03T18:13:24;24.79;45.25
71291;DHT22;59073;51.994;4.448;2022-09-03T18:16:05;24.76;44.92
71291;DHT22;59073;51.994;4.448;2022-09-03T18:18:44;24.72;44.55
71291;DHT22;59073;51.994;4.448;2022-09-03T18:21:20;24.71;45.91
71291;DHT22;59073;51.994;4.448;2022-09-03T18:24:26;24.68;44.72
71291;DHT22;59073;51.994;4.448;2022-09-03T18:27:19;24.65;45.26
71291;DHT22;59073;51.994;4.448;2022-09-03T18:30:06;24.57;45.34
71291;DHT22;59073;51.994;4.448;2022-09-03T18:32:51;24.62;45.29
71291;DHT22;59073;51.994;4.448;2022-09-03T18:35:36;24.62;45.51
71291;DHT22;59073;51.994;4.448;2022-09-03T18:38:27;24.58;45.64
71291;DHT22;59073;51.994;4.448;2022-09-03T18:44:55;24.48;45.01
71291;DHT22;59073;51.994;4.448;2022-09-03T18:47:55;24.52;45.14
71291;DHT22;59073;51.994;4.448;2022-09-03T18:50:54;24.42;45.41
71291;DHT22;59073;51.994;4.448;2022-09-03T18:56:48;24.34;46.31
71291;DHT22;59073;51.994;4.448;2022-09-03T19:02:59;24.38;47.22
71291;DHT22;59073;51.994;4.448;2022-09-03T19:06:12;24.35;47.37
71291;DHT22;59073;51.994;4.448;2022-09-03T19:09:06;24.27;47.03
71291;DHT22;59073;51.994;4.448;2022-09-03T19:12:51;24.27;47.23
71291;DHT22;59073;51.994;4.448;2022-09-03T19:15:13;24.20;46.97
71291;DHT22;59073;51.994;4.448;2022-09-03T19:21:28;24.16;46.83
71291;DHT22;59073;51.994;4.448;2022-09-03T19:24:19;24.09;47.51
71291;DHT22;59073;51.994;4.448;2022-09-03T19:27:13;24.09;47.28
71291;DHT22;59073;51.994;4.448;2022-09-03T19:30:05;24.09;47.43
71291;DHT22;59073;51.994;4.448;2022-09-03T19:36:20;24.06;47.11
71291;DHT22;59073;51.994;4.448;2022-09-03T19:39:48;24.11;46.83
71291;DHT22;59073;51.994;4.448;2022-09-03T19:55:20;23.87;47.89
71291;DHT22;59073;51.994;4.448;2022-09-03T19:58:09;23.87;47.58
71291;DHT22;59073;51.994;4.448;2022-09-03T20:00:54;23.84;47.86
71291;DHT22;59073;51.994;4.448;2022-09-03T20:03:38;23.83;47.33
71291;DHT22;59073;51.994;4.448;2022-09-03T20:06:22;23.94;47.70
71291;DHT22;59073;51.994;4.448;2022-09-03T20:09:08;24.21;47.84
71291;DHT22;59073;51.994;4.448;2022-09-03T20:11:57;24.21;50.46
71291;DHT22;59073;51.994;4.448;2022-09-03T20:14:24;23.90;52.64
71291;DHT22;59073;51.994;4.448;2022-09-03T20:16:59;23.62;53.76
71291;DHT22;59073;51.994;4.448;2022-09-03T20:20:02;23.31;55.44
71291;DHT22;59073;51.994;4.448;2022-09-03T20:22:51;23.18;55.85
71291;DHT22;59073;51.994;4.448;2022-09-03T20:28:46;23.05;56.22
71291;DHT22;59073;51.994;4.448;2022-09-03T20:37:17;22.84;54.57
71291;DHT22;59073;51.994;4.448;2022-09-03T20:40:44;22.97;54.64
71291;DHT22;59073;51.994;4.448;2022-09-03T20:51:13;22.57;55.99
71291;DHT22;59073;51.994;4.448;2022-09-03T20:57:21;22.06;58.42
71291;DHT22;59073;51.994;4.448;2022-09-03T21:00:03;22.16;56.59
71291;DHT22;59073;51.994;4.448;2022-09-03T21:02:36;22.33;56.36
71291;DHT22;59073;51.994;4.448;2022-09-03T21:10:57;22.29;56.78
71291;DHT22;59073;51.994;4.448;2022-09-03T21:13:41;22.17;57.41
71291;DHT22;59073;51.994;4.448;2022-09-03T21:16:33;22.26;57.35
71291;DHT22;59073;51.994;4.448;2022-09-03T21:21:54;21.54;56.82
71291;DHT22;59073;51.994;4.448;2022-09-03T21:24:32;21.62;56.91
71291;DHT22;59073;51.994;4.448;2022-09-03T21:27:06;21.65;58.10
71291;DHT22;59073;51.994;4.448;2022-09-03T21:29:41;21.54;59.91
71291;DHT22;59073;51.994;4.448;2022-09-03T21:32:19;21.42;60.14
71291;DHT22;59073;51.994;4.448;2022-09-03T21:35:05;21.50;59.56
71291;DHT22;59073;51.994;4.448;2022-09-03T21:37:36;21.62;58.60
71291;DHT22;59073;51.994;4.448;2022-09-03T21:40:06;21.85;57.62
71291;DHT22;59073;51.994;4.448;2022-09-03T21:42:48;22.09;59.32
71291;DHT22;59073;51.994;4.448;2022-09-03T21:45:28;22.02;57.94
71291;DHT22;59073;51.994;4.448;2022-09-03T21:48:04;21.78;59.22
71291;DHT22;59073;51.994;4.448;2022-09-03T21:50:44;21.55;59.29
71291;DHT22;59073;51.994;4.448;2022-09-03T21:53:21;21.41;58.42
71291;DHT22;59073;51.994;4.448;2022-09-03T21:59:15;21.27;60.80
71291;DHT22;59073;51.994;4.448;2022-09-03T22:02:07;20.80;66.03
71291;DHT22;59073;51.994;4.448;2022-09-03T22:04:35;20.71;64.34
71291;DHT22;59073;51.994;4.448;2022-09-03T22:07:16;20.92;62.43
71291;DHT22;59073;51.994;4.448;2022-09-03T22:09:58;21.21;61.42
71291;DHT22;59073;51.994;4.448;2022-09-03T22:15:12;21.00;63.02
71291;DHT22;59073;51.994;4.448;2022-09-03T22:17:51;21.17;61.89
71291;DHT22;59073;51.994;4.448;2022-09-03T22:20:23;21.37;61.79
71291;DHT22;59073;51.994;4.448;2022-09-03T22:22:52;21.40;62.99
71291;DHT22;59073;51.994;4.448;2022-09-03T22:25:47;21.41;61.88
71291;DHT22;59073;51.994;4.448;2022-09-03T22:28:27;21.41;61.38
71291;DHT22;59073;51.994;4.448;2022-09-03T22:37:09;21.31;65.24
71291;DHT22;59073;51.994;4.448;2022-09-03T22:39:39;21.06;65.46
71291;DHT22;59073;51.994;4.448;2022-09-03T22:42:28;20.84;62.48
71291;DHT22;59073;51.994;4.448;2022-09-03T22:45:22;20.65;63.19
71291;DHT22;59073;51.994;4.448;2022-09-03T22:48:23;20.63;63.95
71291;DHT22;59073;51.994;4.448;2022-09-03T22:50:57;20.63;64.75
71291;DHT22;59073;51.994;4.448;2022-09-03T22:53:43;20.46;64.28
71291;DHT22;59073;51.994;4.448;2022-09-03T22:56:15;20.33;65.00
71291;DHT22;59073;51.994;4.448;2022-09-03T22:59:24;20.28;65.58
71291;DHT22;59073;51.994;4.448;2022-09-03T23:04:33;20.20;66.18
71291;DHT22;59073;51.994;4.448;2022-09-03T23:09:41;20.28;65.67
71291;DHT22;59073;51.994;4.448;2022-09-03T23:12:19;20.36;65.28
71291;DHT22;59073;51.994;4.448;2022-09-03T23:14:49;20.33;65.30
71291;DHT22;59073;51.994;4.448;2022-09-03T23:17:25;20.26;65.68
71291;DHT22;59073;51.994;4.448;2022-09-03T23:20:11;20.14;65.76
71291;DHT22;59073;51.994;4.448;2022-09-03T23:22:48;20.02;64.62
71291;DHT22;59073;51.994;4.448;2022-09-03T23:25:20;20.07;65.33
71291;DHT22;59073;51.994;4.448;2022-09-03T23:28:01;19.98;66.66
71291;DHT22;59073;51.994;4.448;2022-09-03T23:30:27;19.97;68.55
71291;DHT22;59073;51.994;4.448;2022-09-03T23:32:58;20.05;68.54
71291;DHT22;59073;51.994;4.448;2022-09-03T23:35:47;20.12;67.87
71291;DHT22;59073;51.994;4.448;2022-09-03T23:38:49;20.02;67.55
71291;DHT22;59073;51.994;4.448;2022-09-03T23:41:35;19.71;68.55
71291;DHT22;59073;51.994;4.448;2022-09-03T23:44:41;19.42;72.78
71291;DHT22;59073;51.994;4.448;2022-09-03T23:47:39;19.40;72.63
71291;DHT22;59073;51.994;4.448;2022-09-03T23:50:28;19.52;74.21
71291;DHT22;59073;51.994;4.448;2022-09-03T23:55:55;19.42;75.18
71291;DHT22;59073;51.994;4.448;2022-09-03T23:58:51;19.37;75.73
